Terminal Aerodrome Forecast
Issued by NWS

Home | Current Version | Previous Version | Text Only | Print | Product List | Glossary On
Versions: 1 2 3 4 5 6 7 8 9 10 11 12 13
847
FTUS45 KVEF 281120
TAFHND
TAF
KHND 281120Z 2812/2912 20010KT P6SM FEW120
     FM282000 16012G20KT P6SM SCT120
     FM282300 19012G20KT P6SM SCT120
     FM290500 18006KT P6SM FEW120=

USA.gov is the U.S. government's official web portal to all federal, state and local government web resources and services.